sensor_id;sensor_type;location;lat;lon;timestamp;P1;durP1;ratioP1;P2;durP2;ratioP2
29422;SDS011;16399;51.686;8.684;2024-02-14T00:01:50;5.85;;;2.27;;
29422;SDS011;16399;51.686;8.684;2024-02-14T00:04:52;6.17;;;2.35;;
29422;SDS011;16399;51.686;8.684;2024-02-14T00:07:55;6.08;;;2.30;;
29422;SDS011;16399;51.686;8.684;2024-02-14T00:10:57;4.95;;;2.27;;
29422;SDS011;16399;51.686;8.684;2024-02-14T00:14:01;7.17;;;2.17;;
29422;SDS011;16399;51.686;8.684;2024-02-14T00:17:03;5.17;;;2.12;;
29422;SDS011;16399;51.686;8.684;2024-02-14T00:20:06;3.55;;;1.80;;
29422;SDS011;16399;51.686;8.684;2024-02-14T00:23:11;9.00;;;2.30;;
29422;SDS011;16399;51.686;8.684;2024-02-14T00:26:13;4.42;;;2.15;;
29422;SDS011;16399;51.686;8.684;2024-02-14T00:29:16;7.80;;;2.10;;
29422;SDS011;16399;51.686;8.684;2024-02-14T00:32:19;6.00;;;2.12;;
29422;SDS011;16399;51.686;8.684;2024-02-14T00:35:21;6.67;;;2.30;;
29422;SDS011;16399;51.686;8.684;2024-02-14T00:38:23;6.70;;;2.00;;
29422;SDS011;16399;51.686;8.684;2024-02-14T00:41:26;8.00;;;2.00;;
29422;SDS011;16399;51.686;8.684;2024-02-14T00:44:30;5.25;;;1.90;;
29422;SDS011;16399;51.686;8.684;2024-02-14T00:47:32;10.53;;;2.20;;
29422;SDS011;16399;51.686;8.684;2024-02-14T00:50:35;10.32;;;2.47;;
29422;SDS011;16399;51.686;8.684;2024-02-14T00:53:38;6.20;;;2.37;;
29422;SDS011;16399;51.686;8.684;2024-02-14T00:56:40;5.30;;;2.00;;
29422;SDS011;16399;51.686;8.684;2024-02-14T00:59:42;5.95;;;1.80;;
29422;SDS011;16399;51.686;8.684;2024-02-14T01:02:45;9.58;;;1.98;;
29422;SDS011;16399;51.686;8.684;2024-02-14T01:05:47;5.58;;;2.10;;
29422;SDS011;16399;51.686;8.684;2024-02-14T01:08:50;7.87;;;1.95;;
29422;SDS011;16399;51.686;8.684;2024-02-14T01:11:52;8.55;;;2.00;;
29422;SDS011;16399;51.686;8.684;2024-02-14T01:14:54;6.35;;;2.10;;
29422;SDS011;16399;51.686;8.684;2024-02-14T01:17:57;4.50;;;1.80;;
29422;SDS011;16399;51.686;8.684;2024-02-14T01:20:59;6.90;;;1.90;;
29422;SDS011;16399;51.686;8.684;2024-02-14T01:24:02;6.17;;;1.77;;
29422;SDS011;16399;51.686;8.684;2024-02-14T01:27:05;4.67;;;1.57;;
29422;SDS011;16399;51.686;8.684;2024-02-14T01:30:09;4.60;;;1.30;;
29422;SDS011;16399;51.686;8.684;2024-02-14T01:33:12;4.05;;;1.37;;
29422;SDS011;16399;51.686;8.684;2024-02-14T01:36:14;5.42;;;1.40;;
29422;SDS011;16399;51.686;8.684;2024-02-14T01:39:17;3.37;;;1.65;;
29422;SDS011;16399;51.686;8.684;2024-02-14T01:42:19;5.35;;;1.20;;
29422;SDS011;16399;51.686;8.684;2024-02-14T01:45:21;4.90;;;1.52;;
29422;SDS011;16399;51.686;8.684;2024-02-14T01:48:24;6.95;;;1.90;;
29422;SDS011;16399;51.686;8.684;2024-02-14T01:51:26;5.40;;;1.50;;
29422;SDS011;16399;51.686;8.684;2024-02-14T01:54:33;3.85;;;1.57;;
29422;SDS011;16399;51.686;8.684;2024-02-14T01:57:32;3.95;;;1.40;;
29422;SDS011;16399;51.686;8.684;2024-02-14T02:00:36;5.53;;;1.52;;
29422;SDS011;16399;51.686;8.684;2024-02-14T02:03:39;5.13;;;1.40;;
29422;SDS011;16399;51.686;8.684;2024-02-14T02:06:42;5.78;;;1.60;;
29422;SDS011;16399;51.686;8.684;2024-02-14T02:09:45;4.85;;;1.50;;
29422;SDS011;16399;51.686;8.684;2024-02-14T02:12:48;4.78;;;1.55;;
29422;SDS011;16399;51.686;8.684;2024-02-14T02:15:56;3.33;;;1.30;;
29422;SDS011;16399;51.686;8.684;2024-02-14T02:18:55;7.93;;;1.47;;
29422;SDS011;16399;51.686;8.684;2024-02-14T02:21:58;4.53;;;1.30;;
29422;SDS011;16399;51.686;8.684;2024-02-14T02:25:00;4.30;;;1.22;;
29422;SDS011;16399;51.686;8.684;2024-02-14T02:28:03;4.85;;;1.30;;
29422;SDS011;16399;51.686;8.684;2024-02-14T02:31:06;5.33;;;1.55;;
29422;SDS011;16399;51.686;8.684;2024-02-14T02:34:09;5.97;;;1.60;;
29422;SDS011;16399;51.686;8.684;2024-02-14T02:37:11;4.08;;;1.40;;
29422;SDS011;16399;51.686;8.684;2024-02-14T02:40:14;3.33;;;1.37;;
29422;SDS011;16399;51.686;8.684;2024-02-14T02:43:17;2.58;;;1.20;;
29422;SDS011;16399;51.686;8.684;2024-02-14T02:46:20;3.75;;;1.27;;
29422;SDS011;16399;51.686;8.684;2024-02-14T02:49:22;3.15;;;1.15;;
29422;SDS011;16399;51.686;8.684;2024-02-14T02:52:25;4.08;;;1.40;;
29422;SDS011;16399;51.686;8.684;2024-02-14T02:55:28;2.60;;;0.95;;
29422;SDS011;16399;51.686;8.684;2024-02-14T02:58:32;3.97;;;1.20;;
29422;SDS011;16399;51.686;8.684;2024-02-14T03:01:37;3.98;;;1.10;;
29422;SDS011;16399;51.686;8.684;2024-02-14T03:04:40;4.30;;;1.15;;
29422;SDS011;16399;51.686;8.684;2024-02-14T03:07:43;5.22;;;1.40;;
29422;SDS011;16399;51.686;8.684;2024-02-14T03:10:48;2.37;;;1.05;;
29422;SDS011;16399;51.686;8.684;2024-02-14T03:13:50;5.20;;;1.20;;
29422;SDS011;16399;51.686;8.684;2024-02-14T03:16:52;3.92;;;1.22;;
29422;SDS011;16399;51.686;8.684;2024-02-14T03:19:56;3.05;;;0.98;;
29422;SDS011;16399;51.686;8.684;2024-02-14T03:22:58;4.47;;;1.20;;
29422;SDS011;16399;51.686;8.684;2024-02-14T03:26:01;3.40;;;1.22;;
29422;SDS011;16399;51.686;8.684;2024-02-14T03:29:05;2.62;;;1.10;;
29422;SDS011;16399;51.686;8.684;2024-02-14T03:32:07;3.05;;;1.02;;
29422;SDS011;16399;51.686;8.684;2024-02-14T03:35:09;4.35;;;1.20;;
29422;SDS011;16399;51.686;8.684;2024-02-14T03:38:13;5.17;;;1.10;;
29422;SDS011;16399;51.686;8.684;2024-02-14T03:41:17;4.25;;;1.17;;
29422;SDS011;16399;51.686;8.684;2024-02-14T03:44:19;2.27;;;1.07;;
29422;SDS011;16399;51.686;8.684;2024-02-14T03:47:22;3.98;;;1.05;;
29422;SDS011;16399;51.686;8.684;2024-02-14T03:50:25;4.15;;;1.12;;
29422;SDS011;16399;51.686;8.684;2024-02-14T03:53:27;3.47;;;0.90;;
29422;SDS011;16399;51.686;8.684;2024-02-14T03:56:29;3.25;;;0.90;;
29422;SDS011;16399;51.686;8.684;2024-02-14T03:59:35;4.30;;;1.22;;
29422;SDS011;16399;51.686;8.684;2024-02-14T04:02:39;2.55;;;1.10;;
29422;SDS011;16399;51.686;8.684;2024-02-14T04:05:41;3.55;;;1.10;;
29422;SDS011;16399;51.686;8.684;2024-02-14T04:08:44;2.98;;;1.07;;
29422;SDS011;16399;51.686;8.684;2024-02-14T04:11:46;3.70;;;1.17;;
29422;SDS011;16399;51.686;8.684;2024-02-14T04:14:50;3.52;;;1.02;;
29422;SDS011;16399;51.686;8.684;2024-02-14T04:17:52;2.42;;;0.82;;
29422;SDS011;16399;51.686;8.684;2024-02-14T04:20:54;3.05;;;0.88;;
29422;SDS011;16399;51.686;8.684;2024-02-14T04:23:57;3.98;;;1.27;;
29422;SDS011;16399;51.686;8.684;2024-02-14T04:26:59;3.17;;;1.27;;
29422;SDS011;16399;51.686;8.684;2024-02-14T04:30:03;1.87;;;0.80;;
29422;SDS011;16399;51.686;8.684;2024-02-14T04:33:06;3.22;;;1.00;;
29422;SDS011;16399;51.686;8.684;2024-02-14T04:36:09;2.55;;;0.90;;
29422;SDS011;16399;51.686;8.684;2024-02-14T04:39:12;3.70;;;0.98;;
29422;SDS011;16399;51.686;8.684;2024-02-14T04:42:14;4.10;;;1.20;;
29422;SDS011;16399;51.686;8.684;2024-02-14T04:45:16;2.70;;;1.00;;
29422;SDS011;16399;51.686;8.684;2024-02-14T04:48:19;2.70;;;1.00;;
29422;SDS011;16399;51.686;8.684;2024-02-14T04:51:22;3.40;;;1.20;;
29422;SDS011;16399;51.686;8.684;2024-02-14T04:54:24;3.05;;;1.12;;
29422;SDS011;16399;51.686;8.684;2024-02-14T04:57:27;2.17;;;1.05;;
29422;SDS011;16399;51.686;8.684;2024-02-14T05:00:29;5.62;;;1.10;;
29422;SDS011;16399;51.686;8.684;2024-02-14T05:03:32;7.05;;;1.00;;
29422;SDS011;16399;51.686;8.684;2024-02-14T05:06:34;5.05;;;1.20;;
29422;SDS011;16399;51.686;8.684;2024-02-14T05:09:37;3.90;;;1.40;;
29422;SDS011;16399;51.686;8.684;2024-02-14T05:12:39;4.03;;;0.98;;
29422;SDS011;16399;51.686;8.684;2024-02-14T05:15:42;2.20;;;1.05;;
29422;SDS011;16399;51.686;8.684;2024-02-14T05:18:44;3.33;;;1.22;;
29422;SDS011;16399;51.686;8.684;2024-02-14T05:21:48;3.60;;;1.10;;
29422;SDS011;16399;51.686;8.684;2024-02-14T05:24:51;3.08;;;0.95;;
29422;SDS011;16399;51.686;8.684;2024-02-14T05:27:53;3.37;;;1.17;;
29422;SDS011;16399;51.686;8.684;2024-02-14T05:30:56;2.50;;;1.00;;
29422;SDS011;16399;51.686;8.684;2024-02-14T05:33:59;3.77;;;0.98;;
29422;SDS011;16399;51.686;8.684;2024-02-14T05:37:01;1.75;;;0.90;;
29422;SDS011;16399;51.686;8.684;2024-02-14T05:40:04;1.42;;;0.70;;
29422;SDS011;16399;51.686;8.684;2024-02-14T05:43:07;1.45;;;0.70;;
29422;SDS011;16399;51.686;8.684;2024-02-14T05:46:09;2.75;;;0.75;;
29422;SDS011;16399;51.686;8.684;2024-02-14T05:49:12;2.50;;;0.90;;
29422;SDS011;16399;51.686;8.684;2024-02-14T05:52:14;3.20;;;1.22;;
29422;SDS011;16399;51.686;8.684;2024-02-14T05:55:17;2.37;;;1.10;;
29422;SDS011;16399;51.686;8.684;2024-02-14T05:58:19;3.75;;;1.10;;
29422;SDS011;16399;51.686;8.684;2024-02-14T06:01:21;2.65;;;1.00;;
29422;SDS011;16399;51.686;8.684;2024-02-14T06:04:23;2.15;;;0.98;;
29422;SDS011;16399;51.686;8.684;2024-02-14T06:07:26;3.72;;;1.10;;
29422;SDS011;16399;51.686;8.684;2024-02-14T06:10:28;2.52;;;1.10;;
29422;SDS011;16399;51.686;8.684;2024-02-14T06:13:31;2.70;;;1.10;;
29422;SDS011;16399;51.686;8.684;2024-02-14T06:16:33;3.77;;;1.42;;
29422;SDS011;16399;51.686;8.684;2024-02-14T06:19:36;3.62;;;1.20;;
29422;SDS011;16399;51.686;8.684;2024-02-14T06:22:39;2.92;;;1.12;;
29422;SDS011;16399;51.686;8.684;2024-02-14T06:25:42;3.30;;;1.12;;
29422;SDS011;16399;51.686;8.684;2024-02-14T06:28:45;2.77;;;1.12;;
29422;SDS011;16399;51.686;8.684;2024-02-14T06:31:47;2.47;;;1.10;;
29422;SDS011;16399;51.686;8.684;2024-02-14T06:34:50;2.58;;;1.17;;
29422;SDS011;16399;51.686;8.684;2024-02-14T06:37:52;2.98;;;1.12;;
29422;SDS011;16399;51.686;8.684;2024-02-14T06:40:54;1.82;;;1.00;;
29422;SDS011;16399;51.686;8.684;2024-02-14T06:43:57;4.00;;;1.20;;
29422;SDS011;16399;51.686;8.684;2024-02-14T06:46:59;2.52;;;1.00;;
29422;SDS011;16399;51.686;8.684;2024-02-14T06:50:01;3.12;;;1.22;;
29422;SDS011;16399;51.686;8.684;2024-02-14T06:53:04;3.27;;;1.25;;
29422;SDS011;16399;51.686;8.684;2024-02-14T06:56:08;2.47;;;1.10;;
29422;SDS011;16399;51.686;8.684;2024-02-14T06:59:10;2.72;;;1.17;;
29422;SDS011;16399;51.686;8.684;2024-02-14T07:02:13;2.92;;;1.00;;
29422;SDS011;16399;51.686;8.684;2024-02-14T07:05:15;2.83;;;1.15;;
29422;SDS011;16399;51.686;8.684;2024-02-14T07:08:18;2.35;;;1.20;;
29422;SDS011;16399;51.686;8.684;2024-02-14T07:11:20;2.40;;;1.10;;
29422;SDS011;16399;51.686;8.684;2024-02-14T07:14:22;2.52;;;1.10;;
29422;SDS011;16399;51.686;8.684;2024-02-14T07:17:25;2.08;;;1.12;;
29422;SDS011;16399;51.686;8.684;2024-02-14T07:20:27;2.95;;;1.20;;
29422;SDS011;16399;51.686;8.684;2024-02-14T07:23:30;3.20;;;1.10;;
29422;SDS011;16399;51.686;8.684;2024-02-14T07:26:34;3.22;;;1.05;;
29422;SDS011;16399;51.686;8.684;2024-02-14T07:29:36;2.40;;;1.27;;
29422;SDS011;16399;51.686;8.684;2024-02-14T07:32:38;3.05;;;1.45;;
29422;SDS011;16399;51.686;8.684;2024-02-14T07:35:41;3.80;;;1.27;;
29422;SDS011;16399;51.686;8.684;2024-02-14T07:38:43;2.40;;;1.17;;
29422;SDS011;16399;51.686;8.684;2024-02-14T07:41:45;5.60;;;1.40;;
29422;SDS011;16399;51.686;8.684;2024-02-14T07:44:48;2.98;;;1.10;;
29422;SDS011;16399;51.686;8.684;2024-02-14T07:47:50;5.53;;;1.30;;
29422;SDS011;16399;51.686;8.684;2024-02-14T07:50:53;2.87;;;1.20;;
29422;SDS011;16399;51.686;8.684;2024-02-14T07:53:56;3.17;;;1.07;;
29422;SDS011;16399;51.686;8.684;2024-02-14T07:56:58;3.85;;;0.93;;
29422;SDS011;16399;51.686;8.684;2024-02-14T08:00:00;2.42;;;1.02;;
29422;SDS011;16399;51.686;8.684;2024-02-14T08:03:03;5.78;;;1.10;;
29422;SDS011;16399;51.686;8.684;2024-02-14T08:06:06;1.15;;;0.65;;
29422;SDS011;16399;51.686;8.684;2024-02-14T08:09:09;2.98;;;0.85;;
29422;SDS011;16399;51.686;8.684;2024-02-14T08:12:12;2.85;;;1.00;;
29422;SDS011;16399;51.686;8.684;2024-02-14T08:15:14;1.85;;;0.85;;
29422;SDS011;16399;51.686;8.684;2024-02-14T08:18:16;2.85;;;1.07;;
29422;SDS011;16399;51.686;8.684;2024-02-14T08:21:18;2.75;;;1.00;;
29422;SDS011;16399;51.686;8.684;2024-02-14T08:24:21;5.70;;;1.00;;
29422;SDS011;16399;51.686;8.684;2024-02-14T08:27:23;2.00;;;0.90;;
29422;SDS011;16399;51.686;8.684;2024-02-14T08:30:27;1.65;;;0.75;;
29422;SDS011;16399;51.686;8.684;2024-02-14T08:33:29;1.72;;;0.80;;
29422;SDS011;16399;51.686;8.684;2024-02-14T08:36:31;2.02;;;1.00;;
29422;SDS011;16399;51.686;8.684;2024-02-14T08:39:35;2.45;;;0.80;;
29422;SDS011;16399;51.686;8.684;2024-02-14T08:42:37;3.12;;;1.20;;
29422;SDS011;16399;51.686;8.684;2024-02-14T08:45:40;2.90;;;1.17;;
29422;SDS011;16399;51.686;8.684;2024-02-14T08:48:42;3.05;;;1.20;;
29422;SDS011;16399;51.686;8.684;2024-02-14T08:51:46;2.08;;;1.17;;
29422;SDS011;16399;51.686;8.684;2024-02-14T08:54:49;4.08;;;1.25;;
29422;SDS011;16399;51.686;8.684;2024-02-14T08:57:51;2.70;;;1.27;;
29422;SDS011;16399;51.686;8.684;2024-02-14T09:00:53;3.70;;;1.40;;
29422;SDS011;16399;51.686;8.684;2024-02-14T09:03:56;2.58;;;1.20;;
29422;SDS011;16399;51.686;8.684;2024-02-14T09:06:59;2.98;;;1.27;;
29422;SDS011;16399;51.686;8.684;2024-02-14T09:10:01;3.47;;;1.40;;
29422;SDS011;16399;51.686;8.684;2024-02-14T09:13:04;2.62;;;1.37;;
29422;SDS011;16399;51.686;8.684;2024-02-14T09:16:08;3.02;;;1.50;;
29422;SDS011;16399;51.686;8.684;2024-02-14T09:19:11;3.05;;;1.65;;
29422;SDS011;16399;51.686;8.684;2024-02-14T09:22:14;3.45;;;1.45;;
29422;SDS011;16399;51.686;8.684;2024-02-14T09:25:17;4.20;;;1.00;;
29422;SDS011;16399;51.686;8.684;2024-02-14T09:28:20;2.52;;;1.10;;
29422;SDS011;16399;51.686;8.684;2024-02-14T09:31:22;1.87;;;0.88;;
29422;SDS011;16399;51.686;8.684;2024-02-14T09:34:24;1.95;;;1.07;;
29422;SDS011;16399;51.686;8.684;2024-02-14T09:37:27;2.87;;;1.00;;
29422;SDS011;16399;51.686;8.684;2024-02-14T09:40:29;2.47;;;1.10;;
29422;SDS011;16399;51.686;8.684;2024-02-14T09:43:37;2.60;;;1.15;;
29422;SDS011;16399;51.686;8.684;2024-02-14T09:46:43;2.12;;;0.98;;
29422;SDS011;16399;51.686;8.684;2024-02-14T09:49:46;2.33;;;0.98;;
29422;SDS011;16399;51.686;8.684;2024-02-14T09:52:50;1.50;;;0.90;;
29422;SDS011;16399;51.686;8.684;2024-02-14T09:55:54;3.50;;;0.90;;
29422;SDS011;16399;51.686;8.684;2024-02-14T09:58:57;2.25;;;0.98;;
29422;SDS011;16399;51.686;8.684;2024-02-14T10:02:00;2.08;;;1.10;;
29422;SDS011;16399;51.686;8.684;2024-02-14T10:05:04;1.47;;;0.80;;
29422;SDS011;16399;51.686;8.684;2024-02-14T10:08:07;3.22;;;0.95;;
29422;SDS011;16399;51.686;8.684;2024-02-14T10:11:09;3.27;;;0.85;;
29422;SDS011;16399;51.686;8.684;2024-02-14T10:14:12;2.05;;;1.00;;
29422;SDS011;16399;51.686;8.684;2024-02-14T10:17:22;2.35;;;0.90;;
29422;SDS011;16399;51.686;8.684;2024-02-14T10:20:21;1.65;;;0.82;;
29422;SDS011;16399;51.686;8.684;2024-02-14T10:23:23;2.22;;;1.00;;
29422;SDS011;16399;51.686;8.684;2024-02-14T10:26:25;2.02;;;1.17;;
29422;SDS011;16399;51.686;8.684;2024-02-14T10:29:27;2.08;;;0.90;;
29422;SDS011;16399;51.686;8.684;2024-02-14T10:32:30;2.10;;;0.85;;
29422;SDS011;16399;51.686;8.684;2024-02-14T10:35:34;3.30;;;0.90;;
29422;SDS011;16399;51.686;8.684;2024-02-14T10:38:37;2.25;;;1.00;;
29422;SDS011;16399;51.686;8.684;2024-02-14T10:41:43;3.40;;;1.10;;
29422;SDS011;16399;51.686;8.684;2024-02-14T10:44:45;2.62;;;1.10;;
29422;SDS011;16399;51.686;8.684;2024-02-14T10:47:49;2.27;;;0.93;;
29422;SDS011;16399;51.686;8.684;2024-02-14T10:50:54;2.08;;;1.12;;
29422;SDS011;16399;51.686;8.684;2024-02-14T10:53:58;1.90;;;1.10;;
29422;SDS011;16399;51.686;8.684;2024-02-14T10:57:04;2.42;;;1.10;;
29422;SDS011;16399;51.686;8.684;2024-02-14T11:00:10;7.47;;;2.92;;
29422;SDS011;16399;51.686;8.684;2024-02-14T11:03:16;3.20;;;1.05;;
29422;SDS011;16399;51.686;8.684;2024-02-14T11:06:20;2.20;;;1.10;;
29422;SDS011;16399;51.686;8.684;2024-02-14T11:09:22;3.72;;;1.20;;
29422;SDS011;16399;51.686;8.684;2024-02-14T11:12:35;3.08;;;1.45;;
29422;SDS011;16399;51.686;8.684;2024-02-14T11:15:39;2.10;;;1.20;;
29422;SDS011;16399;51.686;8.684;2024-02-14T11:18:43;3.67;;;1.20;;
29422;SDS011;16399;51.686;8.684;2024-02-14T11:21:46;2.98;;;1.42;;
29422;SDS011;16399;51.686;8.684;2024-02-14T11:24:49;2.05;;;1.20;;
29422;SDS011;16399;51.686;8.684;2024-02-14T11:27:51;2.77;;;1.00;;
29422;SDS011;16399;51.686;8.684;2024-02-14T11:30:58;2.58;;;1.00;;
29422;SDS011;16399;51.686;8.684;2024-02-14T11:34:05;1.55;;;0.90;;
29422;SDS011;16399;51.686;8.684;2024-02-14T11:37:09;3.72;;;1.00;;
29422;SDS011;16399;51.686;8.684;2024-02-14T11:40:11;2.05;;;0.90;;
29422;SDS011;16399;51.686;8.684;2024-02-14T11:43:18;3.62;;;1.20;;
29422;SDS011;16399;51.686;8.684;2024-02-14T11:46:21;1.90;;;0.90;;
29422;SDS011;16399;51.686;8.684;2024-02-14T11:49:23;3.00;;;1.37;;
29422;SDS011;16399;51.686;8.684;2024-02-14T11:52:25;3.33;;;1.02;;
29422;SDS011;16399;51.686;8.684;2024-02-14T11:55:28;3.00;;;1.50;;
29422;SDS011;16399;51.686;8.684;2024-02-14T11:58:32;3.55;;;1.30;;
29422;SDS011;16399;51.686;8.684;2024-02-14T12:01:35;2.80;;;1.12;;
29422;SDS011;16399;51.686;8.684;2024-02-14T12:04:38;7.45;;;1.45;;
29422;SDS011;16399;51.686;8.684;2024-02-14T12:07:40;4.40;;;1.50;;
29422;SDS011;16399;51.686;8.684;2024-02-14T12:10:44;2.95;;;1.30;;
29422;SDS011;16399;51.686;8.684;2024-02-14T12:13:52;2.85;;;1.20;;
29422;SDS011;16399;51.686;8.684;2024-02-14T12:17:01;2.90;;;1.17;;
29422;SDS011;16399;51.686;8.684;2024-02-14T12:20:09;3.25;;;1.22;;
29422;SDS011;16399;51.686;8.684;2024-02-14T12:23:14;3.33;;;1.30;;
29422;SDS011;16399;51.686;8.684;2024-02-14T12:26:19;2.33;;;1.17;;
29422;SDS011;16399;51.686;8.684;2024-02-14T12:29:22;2.87;;;1.45;;
29422;SDS011;16399;51.686;8.684;2024-02-14T12:32:26;4.25;;;1.60;;
29422;SDS011;16399;51.686;8.684;2024-02-14T12:35:28;5.15;;;1.60;;
29422;SDS011;16399;51.686;8.684;2024-02-14T12:38:30;9.18;;;3.83;;
29422;SDS011;16399;51.686;8.684;2024-02-14T12:41:34;5.97;;;2.90;;
29422;SDS011;16399;51.686;8.684;2024-02-14T12:44:38;5.15;;;2.30;;
29422;SDS011;16399;51.686;8.684;2024-02-14T12:47:41;5.90;;;1.87;;
29422;SDS011;16399;51.686;8.684;2024-02-14T12:50:43;3.47;;;1.52;;
29422;SDS011;16399;51.686;8.684;2024-02-14T12:53:47;4.65;;;1.52;;
29422;SDS011;16399;51.686;8.684;2024-02-14T12:56:49;6.67;;;1.47;;
29422;SDS011;16399;51.686;8.684;2024-02-14T12:59:53;4.03;;;1.37;;
29422;SDS011;16399;51.686;8.684;2024-02-14T13:02:55;3.75;;;1.70;;
29422;SDS011;16399;51.686;8.684;2024-02-14T13:05:59;3.85;;;1.47;;
29422;SDS011;16399;51.686;8.684;2024-02-14T13:09:01;4.05;;;1.90;;
29422;SDS011;16399;51.686;8.684;2024-02-14T13:12:06;4.40;;;1.82;;
29422;SDS011;16399;51.686;8.684;2024-02-14T13:15:10;3.77;;;1.47;;
29422;SDS011;16399;51.686;8.684;2024-02-14T13:18:12;5.35;;;1.60;;
29422;SDS011;16399;51.686;8.684;2024-02-14T13:21:15;4.30;;;2.00;;
29422;SDS011;16399;51.686;8.684;2024-02-14T13:24:18;2.90;;;1.57;;
29422;SDS011;16399;51.686;8.684;2024-02-14T13:27:20;3.47;;;1.20;;
29422;SDS011;16399;51.686;8.684;2024-02-14T13:30:23;3.30;;;1.42;;
29422;SDS011;16399;51.686;8.684;2024-02-14T13:33:26;3.35;;;1.35;;
29422;SDS011;16399;51.686;8.684;2024-02-14T13:36:28;3.35;;;1.30;;
29422;SDS011;16399;51.686;8.684;2024-02-14T13:39:31;3.98;;;1.30;;
29422;SDS011;16399;51.686;8.684;2024-02-14T13:42:33;3.85;;;1.25;;
29422;SDS011;16399;51.686;8.684;2024-02-14T13:45:47;7.78;;;1.10;;
29422;SDS011;16399;51.686;8.684;2024-02-14T13:48:46;1.70;;;0.70;;
29422;SDS011;16399;51.686;8.684;2024-02-14T13:51:50;1.95;;;1.02;;
29422;SDS011;16399;51.686;8.684;2024-02-14T13:54:53;3.12;;;1.25;;
29422;SDS011;16399;51.686;8.684;2024-02-14T13:57:55;2.80;;;1.25;;
29422;SDS011;16399;51.686;8.684;2024-02-14T14:00:57;7.30;;;1.47;;
29422;SDS011;16399;51.686;8.684;2024-02-14T14:04:00;3.10;;;1.30;;
29422;SDS011;16399;51.686;8.684;2024-02-14T14:07:02;3.30;;;1.05;;
29422;SDS011;16399;51.686;8.684;2024-02-14T14:10:05;2.98;;;1.10;;
29422;SDS011;16399;51.686;8.684;2024-02-14T14:13:07;4.72;;;1.70;;
29422;SDS011;16399;51.686;8.684;2024-02-14T14:16:09;4.47;;;1.70;;
29422;SDS011;16399;51.686;8.684;2024-02-14T14:19:12;2.10;;;1.10;;
29422;SDS011;16399;51.686;8.684;2024-02-14T14:22:14;2.70;;;0.95;;
29422;SDS011;16399;51.686;8.684;2024-02-14T14:25:16;2.08;;;0.98;;
29422;SDS011;16399;51.686;8.684;2024-02-14T14:28:19;1.77;;;0.85;;
29422;SDS011;16399;51.686;8.684;2024-02-14T14:31:23;2.37;;;1.17;;
29422;SDS011;16399;51.686;8.684;2024-02-14T14:34:25;4.08;;;1.32;;
29422;SDS011;16399;51.686;8.684;2024-02-14T14:37:29;3.77;;;1.30;;
29422;SDS011;16399;51.686;8.684;2024-02-14T14:40:31;3.83;;;1.30;;
29422;SDS011;16399;51.686;8.684;2024-02-14T14:43:34;3.77;;;1.05;;
29422;SDS011;16399;51.686;8.684;2024-02-14T14:46:36;3.45;;;1.40;;
29422;SDS011;16399;51.686;8.684;2024-02-14T14:49:40;3.52;;;1.10;;
29422;SDS011;16399;51.686;8.684;2024-02-14T14:52:43;3.80;;;1.80;;
29422;SDS011;16399;51.686;8.684;2024-02-14T14:55:53;3.80;;;1.50;;
29422;SDS011;16399;51.686;8.684;2024-02-14T14:59:00;3.10;;;1.30;;
29422;SDS011;16399;51.686;8.684;2024-02-14T15:02:04;2.30;;;1.00;;
29422;SDS011;16399;51.686;8.684;2024-02-14T15:05:10;4.28;;;1.30;;
29422;SDS011;16399;51.686;8.684;2024-02-14T15:08:13;3.00;;;1.15;;
29422;SDS011;16399;51.686;8.684;2024-02-14T15:11:17;2.25;;;0.90;;
29422;SDS011;16399;51.686;8.684;2024-02-14T15:14:21;1.75;;;0.62;;
29422;SDS011;16399;51.686;8.684;2024-02-14T15:17:23;3.20;;;1.12;;
29422;SDS011;16399;51.686;8.684;2024-02-14T15:20:27;2.17;;;0.90;;
29422;SDS011;16399;51.686;8.684;2024-02-14T15:23:30;3.45;;;0.90;;
29422;SDS011;16399;51.686;8.684;2024-02-14T15:26:33;3.15;;;0.70;;
29422;SDS011;16399;51.686;8.684;2024-02-14T15:29:37;2.92;;;0.70;;
29422;SDS011;16399;51.686;8.684;2024-02-14T15:32:58;1.47;;;0.53;;
29422;SDS011;16399;51.686;8.684;2024-02-14T15:36:18;3.15;;;1.10;;
29422;SDS011;16399;51.686;8.684;2024-02-14T15:39:21;4.47;;;1.37;;
29422;SDS011;16399;51.686;8.684;2024-02-14T15:42:23;4.47;;;1.15;;
29422;SDS011;16399;51.686;8.684;2024-02-14T15:45:26;4.70;;;1.57;;
29422;SDS011;16399;51.686;8.684;2024-02-14T15:48:29;4.42;;;1.20;;
29422;SDS011;16399;51.686;8.684;2024-02-14T15:51:31;1.25;;;0.70;;
29422;SDS011;16399;51.686;8.684;2024-02-14T15:54:33;2.35;;;1.00;;
29422;SDS011;16399;51.686;8.684;2024-02-14T15:57:37;4.35;;;0.72;;
29422;SDS011;16399;51.686;8.684;2024-02-14T16:00:41;3.95;;;0.68;;
29422;SDS011;16399;51.686;8.684;2024-02-14T16:03:43;1.92;;;0.70;;
29422;SDS011;16399;51.686;8.684;2024-02-14T16:06:46;1.67;;;0.72;;
29422;SDS011;16399;51.686;8.684;2024-02-14T16:09:49;4.15;;;0.70;;
29422;SDS011;16399;51.686;8.684;2024-02-14T16:12:51;3.25;;;0.90;;
29422;SDS011;16399;51.686;8.684;2024-02-14T16:15:54;2.92;;;0.80;;
29422;SDS011;16399;51.686;8.684;2024-02-14T16:18:56;1.90;;;0.90;;
29422;SDS011;16399;51.686;8.684;2024-02-14T16:22:00;1.62;;;0.72;;
29422;SDS011;16399;51.686;8.684;2024-02-14T16:25:04;2.80;;;1.10;;
29422;SDS011;16399;51.686;8.684;2024-02-14T16:28:10;2.55;;;0.98;;
29422;SDS011;16399;51.686;8.684;2024-02-14T16:31:12;2.30;;;1.00;;
29422;SDS011;16399;51.686;8.684;2024-02-14T16:34:15;2.75;;;0.80;;
29422;SDS011;16399;51.686;8.684;2024-02-14T16:37:18;2.27;;;0.90;;
29422;SDS011;16399;51.686;8.684;2024-02-14T16:40:20;1.92;;;0.75;;
29422;SDS011;16399;51.686;8.684;2024-02-14T16:43:22;3.22;;;1.30;;
29422;SDS011;16399;51.686;8.684;2024-02-14T16:46:25;2.05;;;1.00;;
29422;SDS011;16399;51.686;8.684;2024-02-14T16:49:27;2.52;;;0.90;;
29422;SDS011;16399;51.686;8.684;2024-02-14T16:52:29;2.15;;;0.90;;
29422;SDS011;16399;51.686;8.684;2024-02-14T16:55:33;1.77;;;0.78;;
29422;SDS011;16399;51.686;8.684;2024-02-14T16:58:35;3.77;;;0.88;;
29422;SDS011;16399;51.686;8.684;2024-02-14T17:01:37;2.00;;;0.80;;
29422;SDS011;16399;51.686;8.684;2024-02-14T17:04:40;2.02;;;0.85;;
29422;SDS011;16399;51.686;8.684;2024-02-14T17:07:42;3.37;;;0.90;;
29422;SDS011;16399;51.686;8.684;2024-02-14T17:10:45;3.20;;;0.75;;
29422;SDS011;16399;51.686;8.684;2024-02-14T17:13:47;2.60;;;0.98;;
29422;SDS011;16399;51.686;8.684;2024-02-14T17:16:49;1.50;;;0.70;;
29422;SDS011;16399;51.686;8.684;2024-02-14T17:19:53;3.22;;;0.80;;
29422;SDS011;16399;51.686;8.684;2024-02-14T17:22:56;7.53;;;3.02;;
29422;SDS011;16399;51.686;8.684;2024-02-14T17:25:58;12.58;;;5.72;;
29422;SDS011;16399;51.686;8.684;2024-02-14T17:29:01;5.42;;;2.10;;
29422;SDS011;16399;51.686;8.684;2024-02-14T17:32:05;3.72;;;1.57;;
29422;SDS011;16399;51.686;8.684;2024-02-14T17:35:07;3.55;;;1.22;;
29422;SDS011;16399;51.686;8.684;2024-02-14T17:38:10;3.55;;;0.80;;
29422;SDS011;16399;51.686;8.684;2024-02-14T17:41:12;2.50;;;1.17;;
29422;SDS011;16399;51.686;8.684;2024-02-14T17:44:14;3.40;;;1.60;;
29422;SDS011;16399;51.686;8.684;2024-02-14T17:47:18;1.90;;;0.70;;
29422;SDS011;16399;51.686;8.684;2024-02-14T17:50:21;1.15;;;0.70;;
29422;SDS011;16399;51.686;8.684;2024-02-14T17:53:23;1.85;;;0.78;;
29422;SDS011;16399;51.686;8.684;2024-02-14T17:56:27;1.15;;;0.75;;
29422;SDS011;16399;51.686;8.684;2024-02-14T17:59:30;2.42;;;0.72;;
29422;SDS011;16399;51.686;8.684;2024-02-14T18:02:32;3.42;;;0.70;;
29422;SDS011;16399;51.686;8.684;2024-02-14T18:05:35;1.32;;;0.70;;
29422;SDS011;16399;51.686;8.684;2024-02-14T18:08:39;1.55;;;0.70;;
29422;SDS011;16399;51.686;8.684;2024-02-14T18:11:41;1.65;;;0.90;;
29422;SDS011;16399;51.686;8.684;2024-02-14T18:14:44;3.08;;;0.80;;
29422;SDS011;16399;51.686;8.684;2024-02-14T18:17:54;2.13;;;0.90;;
29422;SDS011;16399;51.686;8.684;2024-02-14T18:20:56;2.95;;;0.70;;
29422;SDS011;16399;51.686;8.684;2024-02-14T18:23:59;1.85;;;0.75;;